Garden Plain, KS (67050)

12:47 AM CST on December 04, 2016 (GMT -0600)
K0HYD, 2 Mi West of Goddard | | Change Station

Elev 1470 ft 37.66 °N, 97.61 °W | Updated 4 minutes ago

Light Rain
Light Rain Mist
40.2 °F
Feels Like 40 °F
N
0.0
Wind Variable Wind from NE
Gusts 2.0 mph

Today
High -- | Low -- °F
--% Chance of Precip.
Yesterday
High -- | Low -- °F
Precip. -- in
Pressure 30.08 in
Visibility 3.0 miles
Clouds Mostly Cloudy 500 ft
Overcast 800 ft
Windchill 40 °F
Dew Point 39 °F
Humidity 97%
Rainfall 0.05 in
Snow Depth Not available.
7:30 AM 5:11 PM
Waxing Crescent, 20% visible
METAR KICT 040553Z 02004KT 3SM -RA BR BKN005 OVC008 06/05 A3006 RMK AO2 SLP184 P0003 60020 T00560050 10061 20050 400670044 58003
Pressure 30.08 in
Visibility 3.0 miles
Clouds Mostly Cloudy 500 ft
Overcast 800 ft
Windchill 40 °F
Dew Point 39 °F
Humidity 97%
Rainfall 0.05 in
Snow Depth Not available.
7:30 AM 5:11 PM
Waxing Crescent, 20% visible
METAR KICT 040553Z 02004KT 3SM -RA BR BKN005 OVC008 06/05 A3006 RMK AO2 SLP184 P0003 60020 T00560050 10061 20050 400670044 58003

10-Day Weather Forecast

Almanac

Astronomy

Dec. 04, 2016 Rise Set
Actual Time
Civil Twilight
Nautical Twilight
Astronomical Twilight
Moon
Length of Visible Light
Length of Day
Tomorrow will be .
, % of the Moon is Illuminated

Today's Extremes

State Highs State Lows

Community

WunderPhotos

Upload Photos

1,955,588 photos uploaded!

WunderBlog® & News

Nearby

Air Quality

  Air Quality AQ Index Pollutant
Not available.

Snow Depth

Station Depth Elevation

Earthquake Activity

City Distance Mag. Time & Date
Minimum magnitude displayed is 2.5.

Coastal Water Temperatures

Place Temperature

Stations

Nearby Weather Stations

Station Location Temp. Windchill Dew Point Humidity Wind Precip. Elev Updated Type
                   

Watches & Warnings

There are currently no watches in effect.